Time;durP1;ratioP1;P1;durP2;ratioP2;P2;SDS_P1;SDS_P2;PMS_P1;PMS_P2;Temp;Humidity;BMP_temperature;BMP_pressure;BME280_temperature;BME280_humidity;BME280_pressure;Samples;Min_cycle;Max_cycle;Signal;HPM_P1;HPM_P2
2021/12/09 00:01:24;;;;;;;61.97;38.60;;;;;;;;;;4985997;28;20413;-80
2021/12/09 00:03:55;;;;;;;47.23;32.20;;;;;;;;;;5015661;28;20409;-77
2021/12/09 00:06:25;;;;;;;48.23;32.70;;;;;;;;;;4980500;28;21439;-79
2021/12/09 00:08:53;;;;;;;61.57;39.40;;;;;;;;;;4984665;28;21280;-78
2021/12/09 00:11:19;;;;;;;75.47;43.90;;;;;;;;;;4980770;28;20429;-77
2021/12/09 00:13:45;;;;;;;71.03;42.77;;;;;;;;;;5014694;28;20430;-78
2021/12/09 00:16:12;;;;;;;69.70;43.03;;;;;;;;;;4984041;28;21172;-78
2021/12/09 00:18:38;;;;;;;54.60;36.40;;;;;;;;;;4981771;28;20427;-78
2021/12/09 00:21:04;;;;;;;56.23;36.83;;;;;;;;;;4981634;28;20420;-78
2021/12/09 00:23:30;;;;;;;61.33;39.57;;;;;;;;;;4985639;28;20437;-78
2021/12/09 00:25:56;;;;;;;63.87;39.43;;;;;;;;;;4979654;28;21455;-78
2021/12/09 00:28:22;;;;;;;59.97;37.60;;;;;;;;;;4982966;28;21114;-78
2021/12/09 00:30:48;;;;;;;60.50;38.63;;;;;;;;;;4980133;28;20522;-78
2021/12/09 00:33:16;;;;;;;51.23;33.93;;;;;;;;;;4981627;28;20471;-78
2021/12/09 00:35:57;;;;;;;54.10;34.47;;;;;;;;;;4983991;28;20531;-78
2021/12/09 00:38:34;;;;;;;64.67;39.20;;;;;;;;;;4998687;28;21377;-78
2021/12/09 00:41:02;;;;;;;67.20;39.70;;;;;;;;;;4973983;28;20420;-78
2021/12/09 00:43:28;;;;;;;58.23;37.77;;;;;;;;;;4999910;28;20428;-78
2021/12/09 00:45:55;;;;;;;58.03;37.17;;;;;;;;;;4981800;28;20506;-78
2021/12/09 00:48:21;;;;;;;63.03;40.20;;;;;;;;;;4994688;28;20535;-78
2021/12/09 00:50:47;;;;;;;56.33;37.00;;;;;;;;;;4983067;28;20428;-78
2021/12/09 00:53:13;;;;;;;50.70;34.90;;;;;;;;;;4983311;28;20989;-79
2021/12/09 00:55:39;;;;;;;61.10;39.10;;;;;;;;;;4984487;28;21139;-78
2021/12/09 00:58:05;;;;;;;58.13;38.50;;;;;;;;;;4995424;28;20445;-78
2021/12/09 01:00:32;;;;;;;51.53;35.40;;;;;;;;;;4977979;28;20429;-78
2021/12/09 01:03:01;;;;;;;49.67;34.23;;;;;;;;;;4999019;28;20422;-78
2021/12/09 01:05:28;;;;;;;56.00;37.73;;;;;;;;;;4981624;28;20417;-78
2021/12/09 01:07:54;;;;;;;53.90;35.03;;;;;;;;;;4983258;28;21402;-79
2021/12/09 01:10:20;;;;;;;55.30;38.10;;;;;;;;;;4978766;28;20432;-78
2021/12/09 01:12:47;;;;;;;52.40;35.30;;;;;;;;;;4981239;28;20413;-77
2021/12/09 01:15:14;;;;;;;57.60;37.67;;;;;;;;;;4981299;28;20429;-80
2021/12/09 01:17:40;;;;;;;55.53;37.77;;;;;;;;;;4997380;28;20768;-78
2021/12/09 01:20:08;;;;;;;53.10;36.97;;;;;;;;;;4993652;28;20426;-78
2021/12/09 01:22:39;;;;;;;53.13;35.67;;;;;;;;;;4994531;28;20415;-78
2021/12/09 01:25:06;;;;;;;49.30;33.27;;;;;;;;;;4982669;28;20412;-78
2021/12/09 01:27:35;;;;;;;46.97;33.40;;;;;;;;;;4984617;28;21103;-78
2021/12/09 01:30:08;;;;;;;45.83;33.70;;;;;;;;;;4981753;28;20428;-78
2021/12/09 01:32:34;;;;;;;43.43;30.80;;;;;;;;;;4981822;28;21130;-78
2021/12/09 01:35:00;;;;;;;44.33;31.07;;;;;;;;;;4992220;28;20425;-78
2021/12/09 01:37:26;;;;;;;43.73;30.70;;;;;;;;;;4984283;28;20447;-78
2021/12/09 01:39:53;;;;;;;46.07;31.83;;;;;;;;;;4982160;28;20945;-78
2021/12/09 01:42:20;;;;;;;39.90;27.63;;;;;;;;;;4980526;28;20431;-78
2021/12/09 01:44:46;;;;;;;41.20;29.63;;;;;;;;;;4980561;28;20429;-78
2021/12/09 01:47:12;;;;;;;35.13;25.67;;;;;;;;;;4981540;28;21122;-78
2021/12/09 01:49:38;;;;;;;35.93;26.80;;;;;;;;;;4994714;28;20449;-78
2021/12/09 01:52:05;;;;;;;32.93;25.33;;;;;;;;;;4981690;28;20427;-78
2021/12/09 01:54:31;;;;;;;40.57;29.37;;;;;;;;;;4981099;28;20486;-78
2021/12/09 01:56:57;;;;;;;43.80;31.13;;;;;;;;;;4979656;28;20444;-78
2021/12/09 01:59:23;;;;;;;36.30;27.47;;;;;;;;;;4994436;28;20416;-78
2021/12/09 02:01:49;;;;;;;42.53;31.80;;;;;;;;;;4976138;28;20483;-78
2021/12/09 02:04:15;;;;;;;37.07;28.57;;;;;;;;;;4980643;28;21328;-78
2021/12/09 02:06:42;;;;;;;38.37;28.97;;;;;;;;;;4995327;28;20455;-77
2021/12/09 02:09:09;;;;;;;33.37;25.50;;;;;;;;;;4993959;28;20496;-78
2021/12/09 02:11:35;;;;;;;37.47;27.37;;;;;;;;;;4992882;28;20515;-78
2021/12/09 02:14:03;;;;;;;45.70;32.47;;;;;;;;;;4978222;28;20459;-78
2021/12/09 02:16:29;;;;;;;39.47;28.87;;;;;;;;;;5009770;28;20448;-79
2021/12/09 02:18:55;;;;;;;37.57;27.93;;;;;;;;;;4992471;28;20474;-78
2021/12/09 02:21:23;;;;;;;36.83;27.37;;;;;;;;;;4978764;28;20463;-78
2021/12/09 02:23:50;;;;;;;41.03;29.27;;;;;;;;;;4995082;28;20412;-78
2021/12/09 02:26:18;;;;;;;41.60;30.93;;;;;;;;;;4994663;28;20440;-78
2021/12/09 02:28:45;;;;;;;40.20;29.37;;;;;;;;;;4981348;28;20475;-78
2021/12/09 02:31:11;;;;;;;36.93;27.83;;;;;;;;;;4982303;28;21270;-78
2021/12/09 02:33:38;;;;;;;40.17;29.40;;;;;;;;;;4984710;28;21026;-78
2021/12/09 02:36:04;;;;;;;41.17;30.03;;;;;;;;;;4983962;28;20424;-79
2021/12/09 02:38:31;;;;;;;49.10;33.73;;;;;;;;;;4999551;28;20416;-77
2021/12/09 02:40:57;;;;;;;43.00;31.77;;;;;;;;;;4998898;28;20577;-78
2021/12/09 02:43:28;;;;;;;41.60;30.33;;;;;;;;;;4983647;28;20408;-77
2021/12/09 02:45:55;;;;;;;45.10;32.10;;;;;;;;;;4984262;28;20478;-77
2021/12/09 02:48:21;;;;;;;40.63;29.73;;;;;;;;;;4981963;28;20521;-77
2021/12/09 02:50:48;;;;;;;38.27;28.60;;;;;;;;;;4982694;28;21089;-77
2021/12/09 02:53:14;;;;;;;44.93;31.87;;;;;;;;;;4983226;28;20420;-77
2021/12/09 02:55:40;;;;;;;43.63;31.20;;;;;;;;;;4995740;28;20440;-77
2021/12/09 02:58:07;;;;;;;37.80;28.83;;;;;;;;;;4999388;28;20459;-77
2021/12/09 03:00:33;;;;;;;34.10;26.07;;;;;;;;;;4980709;28;21166;-77
2021/12/09 03:03:00;;;;;;;39.23;28.33;;;;;;;;;;4982706;28;21288;-77
2021/12/09 03:05:26;;;;;;;31.73;25.27;;;;;;;;;;4980675;28;20514;-78
2021/12/09 03:07:53;;;;;;;41.63;30.53;;;;;;;;;;4997900;28;20425;-78
2021/12/09 03:10:23;;;;;;;42.30;29.20;;;;;;;;;;4982366;28;20448;-78
2021/12/09 03:12:54;;;;;;;42.60;30.50;;;;;;;;;;4981083;28;20425;-77
2021/12/09 03:15:21;;;;;;;38.43;27.70;;;;;;;;;;4982154;28;20421;-77
2021/12/09 03:17:47;;;;;;;43.73;30.53;;;;;;;;;;4980789;28;20455;-78
2021/12/09 03:20:15;;;;;;;34.77;25.97;;;;;;;;;;4998364;28;20504;-77
2021/12/09 03:22:41;;;;;;;36.93;26.53;;;;;;;;;;4997110;28;20424;-77
2021/12/09 03:25:11;;;;;;;45.20;31.40;;;;;;;;;;5010060;28;20424;-77
2021/12/09 03:27:38;;;;;;;40.77;28.90;;;;;;;;;;4993612;28;20459;-77
2021/12/09 03:30:05;;;;;;;44.57;30.73;;;;;;;;;;5014753;28;20424;-79
2021/12/09 03:32:31;;;;;;;48.83;31.73;;;;;;;;;;4984051;28;21212;-79
2021/12/09 03:34:57;;;;;;;46.03;30.67;;;;;;;;;;4983722;28;21101;-79
2021/12/09 03:37:26;;;;;;;42.80;28.73;;;;;;;;;;4980151;28;20458;-77
2021/12/09 03:39:52;;;;;;;50.07;32.83;;;;;;;;;;4980910;28;20432;-77
2021/12/09 03:42:20;;;;;;;44.23;29.70;;;;;;;;;;4996326;28;20418;-77
2021/12/09 03:44:48;;;;;;;48.60;30.70;;;;;;;;;;4984928;28;21158;-77
2021/12/09 03:47:16;;;;;;;47.33;30.73;;;;;;;;;;4980314;28;20416;-77
2021/12/09 03:49:43;;;;;;;44.73;30.07;;;;;;;;;;4981078;28;20436;-78
2021/12/09 03:52:10;;;;;;;50.63;33.13;;;;;;;;;;4978407;28;20539;-78
2021/12/09 03:54:36;;;;;;;48.53;32.40;;;;;;;;;;4995086;28;20431;-78
2021/12/09 03:57:04;;;;;;;43.27;29.40;;;;;;;;;;4980269;28;20451;-77
2021/12/09 03:59:30;;;;;;;48.90;31.97;;;;;;;;;;4979054;28;21226;-77
2021/12/09 04:01:56;;;;;;;47.93;31.77;;;;;;;;;;4983603;28;20421;-77
2021/12/09 04:04:22;;;;;;;48.33;30.70;;;;;;;;;;4994983;28;20405;-77
2021/12/09 04:06:49;;;;;;;48.40;31.33;;;;;;;;;;4978389;28;20425;-78
2021/12/09 04:09:18;;;;;;;43.77;29.33;;;;;;;;;;4982418;28;20543;-79
2021/12/09 04:11:44;;;;;;;46.50;29.90;;;;;;;;;;5016456;28;21142;-79
2021/12/09 04:14:10;;;;;;;42.60;27.97;;;;;;;;;;4997998;28;20567;-77
2021/12/09 04:16:37;;;;;;;44.93;29.93;;;;;;;;;;4978848;28;20456;-78
2021/12/09 04:19:05;;;;;;;42.23;28.17;;;;;;;;;;4979865;28;20583;-78
2021/12/09 04:21:31;;;;;;;52.37;32.30;;;;;;;;;;4982536;28;20444;-78
2021/12/09 04:23:57;;;;;;;43.87;28.80;;;;;;;;;;4995426;28;20436;-78
2021/12/09 04:26:23;;;;;;;49.40;30.97;;;;;;;;;;4994195;28;20416;-78
2021/12/09 04:28:50;;;;;;;42.73;28.97;;;;;;;;;;4980239;28;20991;-78
2021/12/09 04:31:16;;;;;;;40.47;27.60;;;;;;;;;;4980321;28;20420;-78
2021/12/09 04:33:42;;;;;;;44.07;28.47;;;;;;;;;;4980960;28;20424;-78
2021/12/09 04:36:10;;;;;;;41.57;28.67;;;;;;;;;;4994901;28;20424;-78
2021/12/09 04:38:36;;;;;;;43.80;29.10;;;;;;;;;;4978437;28;20413;-78
2021/12/09 04:41:03;;;;;;;51.87;33.07;;;;;;;;;;4981290;28;20429;-78
2021/12/09 04:43:29;;;;;;;39.83;27.10;;;;;;;;;;4995322;28;20428;-78
2021/12/09 04:45:59;;;;;;;45.93;29.83;;;;;;;;;;4978247;28;20457;-78
2021/12/09 04:48:25;;;;;;;42.77;28.67;;;;;;;;;;4996427;28;20428;-77
2021/12/09 04:50:51;;;;;;;44.17;29.87;;;;;;;;;;4977363;28;20479;-78
2021/12/09 04:53:17;;;;;;;36.67;25.70;;;;;;;;;;4996904;28;20447;-78
2021/12/09 04:55:44;;;;;;;40.30;27.97;;;;;;;;;;4996858;28;20425;-79
2021/12/09 04:58:10;;;;;;;39.93;27.87;;;;;;;;;;4984480;28;20450;-78
2021/12/09 05:00:39;;;;;;;42.40;28.53;;;;;;;;;;4983586;28;20470;-78
2021/12/09 05:03:11;;;;;;;37.97;26.20;;;;;;;;;;4979128;28;20409;-78
2021/12/09 05:05:39;;;;;;;34.97;24.57;;;;;;;;;;4994696;28;20467;-78
2021/12/09 05:08:07;;;;;;;41.37;28.90;;;;;;;;;;4996716;28;21177;-78
2021/12/09 05:10:51;;;;;;;34.37;24.70;;;;;;;;;;4997324;28;20416;-78
2021/12/09 05:13:18;;;;;;;53.40;34.77;;;;;;;;;;4979331;28;20424;-78
2021/12/09 05:15:45;;;;;;;42.63;29.87;;;;;;;;;;4994557;28;20635;-78
2021/12/09 05:18:11;;;;;;;40.83;27.53;;;;;;;;;;4981518;28;20455;-79
2021/12/09 05:20:37;;;;;;;39.27;27.73;;;;;;;;;;4985572;28;20404;-79
2021/12/09 05:23:04;;;;;;;40.93;28.37;;;;;;;;;;4982293;28;21342;-79
2021/12/09 05:25:30;;;;;;;36.80;26.17;;;;;;;;;;4979909;28;20408;-79
2021/12/09 05:27:56;;;;;;;35.23;25.13;;;;;;;;;;4983864;28;20432;-79
2021/12/09 05:30:25;;;;;;;37.93;26.67;;;;;;;;;;4984324;28;20474;-78
2021/12/09 05:32:52;;;;;;;36.23;24.97;;;;;;;;;;4983901;28;21163;-78
2021/12/09 05:35:18;;;;;;;39.07;26.93;;;;;;;;;;4980071;28;20444;-78
2021/12/09 05:37:44;;;;;;;36.77;27.33;;;;;;;;;;4994307;28;20532;-78
2021/12/09 05:40:12;;;;;;;45.30;31.33;;;;;;;;;;4983254;28;20526;-78
2021/12/09 05:42:38;;;;;;;48.87;33.50;;;;;;;;;;4980983;28;20479;-78
2021/12/09 05:45:05;;;;;;;47.37;32.87;;;;;;;;;;4981035;28;20415;-78
2021/12/09 05:47:31;;;;;;;39.03;28.20;;;;;;;;;;4976959;28;21261;-78
2021/12/09 05:49:57;;;;;;;40.53;29.33;;;;;;;;;;4979202;28;21177;-78
2021/12/09 05:52:23;;;;;;;38.70;27.77;;;;;;;;;;4995580;28;20429;-79
2021/12/09 05:54:49;;;;;;;39.13;28.60;;;;;;;;;;4975250;28;20425;-78
2021/12/09 05:57:16;;;;;;;36.97;28.03;;;;;;;;;;4980610;28;21198;-79
2021/12/09 05:59:42;;;;;;;42.77;31.73;;;;;;;;;;4980498;28;22004;-79
2021/12/09 06:02:13;;;;;;;52.67;36.30;;;;;;;;;;4981093;28;20471;-78
2021/12/09 06:04:39;;;;;;;49.13;34.70;;;;;;;;;;4979133;28;20412;-78
2021/12/09 06:07:05;;;;;;;47.03;34.50;;;;;;;;;;4978538;28;20425;-78
2021/12/09 06:09:32;;;;;;;54.30;35.93;;;;;;;;;;4980771;28;21402;-78
2021/12/09 06:11:58;;;;;;;49.07;35.07;;;;;;;;;;4979336;28;21334;-77
2021/12/09 06:14:24;;;;;;;46.17;33.17;;;;;;;;;;4973417;28;20428;-78
2021/12/09 06:16:50;;;;;;;47.93;34.63;;;;;;;;;;4977930;28;20505;-78
2021/12/09 06:19:16;;;;;;;48.00;34.87;;;;;;;;;;4977510;28;20424;-78
2021/12/09 06:21:42;;;;;;;56.17;38.03;;;;;;;;;;4976240;28;20416;-78
2021/12/09 06:24:09;;;;;;;47.33;34.90;;;;;;;;;;4978436;28;20498;-78
2021/12/09 06:26:35;;;;;;;58.67;39.07;;;;;;;;;;4964920;28;20422;-78
2021/12/09 06:29:02;;;;;;;50.20;34.60;;;;;;;;;;4991534;28;20417;-78
2021/12/09 06:31:28;;;;;;;52.33;36.10;;;;;;;;;;4992548;28;20420;-78
2021/12/09 06:33:55;;;;;;;53.07;37.23;;;;;;;;;;4993475;28;20430;-78
2021/12/09 06:36:21;;;;;;;52.03;35.97;;;;;;;;;;4991258;28;20424;-78
2021/12/09 06:38:47;;;;;;;46.87;34.73;;;;;;;;;;4977678;28;20511;-78
2021/12/09 06:41:13;;;;;;;59.57;40.40;;;;;;;;;;4978427;28;20422;-78
2021/12/09 06:43:42;;;;;;;64.57;42.70;;;;;;;;;;4991888;28;20416;-80
2021/12/09 06:46:10;;;;;;;53.10;37.43;;;;;;;;;;4978961;28;20421;-78
2021/12/09 06:48:36;;;;;;;56.73;38.87;;;;;;;;;;4977255;28;20455;-78
2021/12/09 06:51:02;;;;;;;47.83;36.63;;;;;;;;;;4980412;28;20623;-78
2021/12/09 06:53:29;;;;;;;48.23;35.40;;;;;;;;;;4978841;28;20412;-78
2021/12/09 06:55:55;;;;;;;53.27;37.77;;;;;;;;;;4976608;28;20457;-78
2021/12/09 06:58:22;;;;;;;60.67;42.53;;;;;;;;;;4994471;28;21021;-78
2021/12/09 07:00:48;;;;;;;55.20;39.63;;;;;;;;;;5013771;28;20425;-78
2021/12/09 07:03:16;;;;;;;74.20;49.37;;;;;;;;;;4978631;28;20419;-78
2021/12/09 07:05:43;;;;;;;78.23;50.40;;;;;;;;;;4976392;28;20425;-79
2021/12/09 07:08:09;;;;;;;59.93;42.77;;;;;;;;;;4992244;28;20503;-78
2021/12/09 07:10:35;;;;;;;71.37;48.63;;;;;;;;;;4980231;28;20417;-78
2021/12/09 07:13:03;;;;;;;64.13;46.00;;;;;;;;;;4980743;28;20429;-78
2021/12/09 07:15:29;;;;;;;64.50;44.60;;;;;;;;;;4980351;28;20438;-78
2021/12/09 07:17:55;;;;;;;69.37;45.60;;;;;;;;;;4994433;28;20453;-79
2021/12/09 07:20:23;;;;;;;82.17;53.87;;;;;;;;;;4980987;28;20409;-78
2021/12/09 07:22:50;;;;;;;74.33;51.30;;;;;;;;;;4984323;28;20409;-78
2021/12/09 07:25:17;;;;;;;84.03;56.53;;;;;;;;;;4998347;28;20930;-78
2021/12/09 07:27:43;;;;;;;92.63;60.63;;;;;;;;;;4981529;28;21445;-78
2021/12/09 07:30:10;;;;;;;80.93;55.43;;;;;;;;;;4985173;28;20428;-81
2021/12/09 07:32:39;;;;;;;75.87;50.83;;;;;;;;;;4987453;28;20412;-82
2021/12/09 08:15:49;;;;;;;72.00;45.50;;;;;;;;;;4986241;28;21007;-83
2021/12/09 08:55:17;;;;;;;57.70;39.20;;;;;;;;;;4909956;28;20395;-81
2021/12/09 08:58:14;;;;;;;53.87;36.83;;;;;;;;;;4910488;29;20493;-82
2021/12/09 09:01:24;;;;;;;52.53;33.97;;;;;;;;;;4911232;29;20448;-82
2021/12/09 09:07:49;;;;;;;42.17;29.77;;;;;;;;;;4861265;29;20420;-82
2021/12/09 09:26:34;;;;;;;33.47;24.20;;;;;;;;;;4871757;29;20397;-81
2021/12/09 09:29:31;;;;;;;;;;;;;;;;;;;;;
2021/12/09 10:09:50;;;;;;;;;;;;;;;;;;;;;
2021/12/09 10:21:56;;;;;;;14.57;11.00;;;;;;;;;;4886289;29;20869;-81
2021/12/09 10:24:40;;;;;;;14.10;11.30;;;;;;;;;;4887314;29;20413;-81
2021/12/09 10:30:47;;;;;;;12.97;9.97;;;;;;;;;;4921176;28;21546;-82
2021/12/09 10:33:53;;;;;;;15.90;11.60;;;;;;;;;;4917611;28;20462;-81
2021/12/09 10:43:02;;;;;;;15.47;10.33;;;;;;;;;;4866780;29;20393;-81
2021/12/09 10:49:04;;;;;;;15.87;10.03;;;;;;;;;;4865327;29;20493;-81
2021/12/09 11:25:40;;;;;;;10.23;8.30;;;;;;;;;;4908518;29;20382;-82
2021/12/09 11:28:16;;;;;;;11.57;8.10;;;;;;;;;;4958096;28;20413;-82
2021/12/09 11:31:04;;;;;;;12.07;8.87;;;;;;;;;;5000139;28;20691;-82
2021/12/09 11:33:45;;;;;;;13.10;9.10;;;;;;;;;;4999149;28;21209;-82
2021/12/09 11:45:52;;;;;;;13.80;10.27;;;;;;;;;;4968627;28;21448;-81
2021/12/09 11:48:35;;;;;;;13.17;10.00;;;;;;;;;;4964321;28;20438;-81
2021/12/09 12:07:18;;;;;;;14.30;11.23;;;;;;;;;;4927587;28;20465;-81
2021/12/09 12:15:49;;;;;;;15.30;11.53;;;;;;;;;;4967184;28;20413;-81
2021/12/09 12:19:09;;;;;;;13.50;10.67;;;;;;;;;;4978006;28;20475;-82
2021/12/09 12:27:31;;;;;;;14.20;11.47;;;;;;;;;;4948555;28;21506;-81
2021/12/09 12:33:31;;;;;;;16.97;11.73;;;;;;;;;;4985691;28;21116;-82
2021/12/09 12:42:46;;;;;;;16.70;10.83;;;;;;;;;;4885275;29;21297;-83
2021/12/09 12:49:13;;;;;;;17.17;11.90;;;;;;;;;;4985233;28;20487;-82
2021/12/09 12:52:04;;;;;;;15.93;11.47;;;;;;;;;;4950807;28;20448;-83
2021/12/09 12:55:05;;;;;;;;;;;;;;;;;;;;;
2021/12/09 13:10:40;;;;;;;;;;;;;;;;;;;;;
2021/12/09 13:26:18;;;;;;;17.53;12.20;;;;;;;;;;4817701;29;20802;-82
2021/12/09 13:32:36;;;;;;;18.07;12.50;;;;;;;;;;4834482;29;20422;-83
2021/12/09 14:24:25;;;;;;;;;;;;;;;;;;;;;
2021/12/09 14:49:03;;;;;;;28.63;20.83;;;;;;;;;;4922019;28;20570;-83
2021/12/09 15:28:40;;;;;;;34.43;23.53;;;;;;;;;;4944294;28;20461;-82
2021/12/09 16:14:48;;;;;;;;;;;;;;;;;;;;;
2021/12/09 17:44:48;;;;;;;58.87;36.73;;;;;;;;;;4799964;29;21005;-81
2021/12/09 17:51:07;;;;;;;66.37;39.23;;;;;;;;;;4762156;29;20434;-81
2021/12/09 17:53:57;;;;;;;56.27;35.07;;;;;;;;;;4763959;29;20447;-82
2021/12/09 17:56:51;;;;;;;62.40;38.90;;;;;;;;;;4777870;29;20491;-83
2021/12/09 17:59:35;;;;;;;45.53;30.20;;;;;;;;;;4765989;29;21612;-82
2021/12/09 18:02:04;;;;;;;57.57;36.47;;;;;;;;;;4831251;29;20437;-81
2021/12/09 18:10:51;;;;;;;46.57;29.47;;;;;;;;;;4849778;29;20437;-81
2021/12/09 18:16:55;;;;;;;36.13;24.10;;;;;;;;;;4912105;28;20424;-81
2021/12/09 18:19:21;;;;;;;50.50;32.13;;;;;;;;;;4956012;28;20442;-79
2021/12/09 18:21:58;;;;;;;48.23;31.97;;;;;;;;;;4983574;28;20507;-80
2021/12/09 18:24:27;;;;;;;51.73;32.63;;;;;;;;;;5011728;28;20428;-81
2021/12/09 18:26:53;;;;;;;50.77;32.40;;;;;;;;;;4985309;28;20429;-81
2021/12/09 18:29:19;;;;;;;46.83;27.40;;;;;;;;;;4986874;28;21755;-81
2021/12/09 18:32:09;;;;;;;49.50;31.83;;;;;;;;;;4997159;28;20427;-83
2021/12/09 18:34:38;;;;;;;51.10;31.13;;;;;;;;;;4985336;28;20421;-81
2021/12/09 18:37:16;;;;;;;44.93;30.03;;;;;;;;;;4997731;28;20432;-83
2021/12/09 18:39:50;;;;;;;46.10;28.20;;;;;;;;;;4970280;28;20953;-83
2021/12/09 18:42:18;;;;;;;49.40;31.10;;;;;;;;;;4985091;28;20420;-80
2021/12/09 18:44:49;;;;;;;47.97;31.93;;;;;;;;;;5015627;28;21351;-80
2021/12/09 18:47:15;;;;;;;47.37;31.13;;;;;;;;;;4999669;28;20507;-80
2021/12/09 18:52:45;;;;;;;41.63;27.93;;;;;;;;;;4983669;28;20388;-82
2021/12/09 18:55:36;;;;;;;40.70;27.60;;;;;;;;;;4986797;28;20464;-82
2021/12/09 18:58:07;;;;;;;38.10;26.10;;;;;;;;;;4977064;28;20453;-80
2021/12/09 19:00:33;;;;;;;39.53;26.27;;;;;;;;;;4979611;28;20436;-80
2021/12/09 19:03:00;;;;;;;38.57;26.10;;;;;;;;;;4995648;28;21445;-80
2021/12/09 19:05:29;;;;;;;40.87;27.27;;;;;;;;;;4981590;28;20424;-80
2021/12/09 19:07:55;;;;;;;39.07;26.37;;;;;;;;;;4991901;28;20515;-80
2021/12/09 19:10:21;;;;;;;39.23;27.33;;;;;;;;;;5000361;28;20452;-80
2021/12/09 19:12:48;;;;;;;38.53;26.50;;;;;;;;;;4984887;28;20424;-80
2021/12/09 19:15:15;;;;;;;49.83;32.37;;;;;;;;;;4984802;28;20539;-80
2021/12/09 19:17:51;;;;;;;53.30;33.73;;;;;;;;;;4982807;28;20520;-80
2021/12/09 19:20:26;;;;;;;53.37;34.67;;;;;;;;;;4984753;28;20412;-81
2021/12/09 19:22:53;;;;;;;58.07;37.63;;;;;;;;;;5000669;28;20423;-80
2021/12/09 19:25:21;;;;;;;52.67;35.20;;;;;;;;;;4985672;28;21100;-80
2021/12/09 19:27:47;;;;;;;58.53;37.80;;;;;;;;;;4985496;28;20432;-81
2021/12/09 19:30:16;;;;;;;49.57;33.10;;;;;;;;;;4987700;28;20911;-82
2021/12/09 19:32:42;;;;;;;54.13;36.30;;;;;;;;;;4982997;28;20767;-82
2021/12/09 19:35:15;;;;;;;65.53;38.33;;;;;;;;;;4964132;28;20447;-82
2021/12/09 19:37:41;;;;;;;55.03;34.13;;;;;;;;;;4983730;28;20443;-81
2021/12/09 19:40:09;;;;;;;59.87;36.23;;;;;;;;;;5000142;28;20502;-81
2021/12/09 19:42:35;;;;;;;58.47;36.27;;;;;;;;;;4988070;28;20441;-81
2021/12/09 19:45:01;;;;;;;60.03;38.40;;;;;;;;;;4983760;28;20435;-81
2021/12/09 19:47:28;;;;;;;64.93;41.40;;;;;;;;;;4987125;28;20420;-81
2021/12/09 19:49:54;;;;;;;60.03;38.83;;;;;;;;;;4990349;28;20764;-81
2021/12/09 19:52:20;;;;;;;54.80;36.43;;;;;;;;;;4998695;28;20424;-79
2021/12/09 19:54:47;;;;;;;61.87;39.63;;;;;;;;;;5015536;28;20508;-79
2021/12/09 19:57:16;;;;;;;57.17;36.23;;;;;;;;;;4979252;28;20452;-80
2021/12/09 19:59:42;;;;;;;60.87;36.83;;;;;;;;;;4979727;28;20421;-81
2021/12/09 20:02:08;;;;;;;66.30;42.47;;;;;;;;;;4982191;28;20575;-79
2021/12/09 20:04:34;;;;;;;63.07;38.83;;;;;;;;;;4998125;28;21169;-79
2021/12/09 20:07:01;;;;;;;61.40;38.37;;;;;;;;;;4997630;28;20432;-83
2021/12/09 20:09:27;;;;;;;54.50;34.57;;;;;;;;;;4983770;28;20444;-79
2021/12/09 20:11:54;;;;;;;58.17;36.63;;;;;;;;;;4976793;28;20483;-80
2021/12/09 20:14:21;;;;;;;62.67;38.17;;;;;;;;;;4980070;28;20420;-81
2021/12/09 20:16:49;;;;;;;61.97;37.73;;;;;;;;;;4987634;28;20420;-82
2021/12/09 20:19:15;;;;;;;55.87;35.93;;;;;;;;;;4994976;28;20465;-81
2021/12/09 20:21:42;;;;;;;58.53;36.77;;;;;;;;;;4982021;28;20424;-82
2021/12/09 20:24:08;;;;;;;60.17;38.17;;;;;;;;;;4979883;28;21306;-80
2021/12/09 20:26:35;;;;;;;57.33;37.03;;;;;;;;;;4993682;28;20448;-79
2021/12/09 20:29:02;;;;;;;59.77;37.83;;;;;;;;;;4985318;28;20435;-81
2021/12/09 20:31:28;;;;;;;62.23;38.13;;;;;;;;;;4982403;28;20532;-81
2021/12/09 20:33:54;;;;;;;62.97;38.27;;;;;;;;;;5008507;28;20446;-80
2021/12/09 20:36:22;;;;;;;60.83;38.47;;;;;;;;;;4978820;28;20440;-81
2021/12/09 20:38:51;;;;;;;62.03;39.37;;;;;;;;;;4992421;28;20468;-82
2021/12/09 20:41:17;;;;;;;71.60;43.60;;;;;;;;;;4976020;28;20451;-79
2021/12/09 20:43:43;;;;;;;67.23;42.03;;;;;;;;;;4983370;28;21192;-79
2021/12/09 20:46:10;;;;;;;95.23;49.00;;;;;;;;;;4981891;28;20432;-79
2021/12/09 20:48:36;;;;;;;92.93;48.30;;;;;;;;;;4980219;28;20428;-80
2021/12/09 20:51:03;;;;;;;88.33;47.27;;;;;;;;;;4984310;28;20421;-81
2021/12/09 20:53:30;;;;;;;77.07;45.73;;;;;;;;;;4993695;28;20883;-80
2021/12/09 20:55:56;;;;;;;80.57;46.80;;;;;;;;;;5012391;28;20436;-80
2021/12/09 20:58:23;;;;;;;84.47;49.67;;;;;;;;;;4981186;28;20464;-80
2021/12/09 21:00:51;;;;;;;72.37;45.23;;;;;;;;;;4995483;28;20469;-80
2021/12/09 21:03:18;;;;;;;72.17;43.87;;;;;;;;;;4996801;28;20429;-81
2021/12/09 21:05:46;;;;;;;65.93;40.63;;;;;;;;;;4981728;28;20568;-81
2021/12/09 21:08:12;;;;;;;66.97;41.03;;;;;;;;;;4984137;28;21277;-81
2021/12/09 21:10:40;;;;;;;70.80;42.20;;;;;;;;;;4981807;28;20479;-80
2021/12/09 21:13:10;;;;;;;68.33;40.47;;;;;;;;;;4984922;28;20424;-80
2021/12/09 21:15:36;;;;;;;68.57;43.63;;;;;;;;;;4979012;28;20436;-78
2021/12/09 21:18:05;;;;;;;71.87;41.77;;;;;;;;;;4976045;28;21525;-78
2021/12/09 21:20:36;;;;;;;65.60;41.63;;;;;;;;;;4979077;28;20515;-78
2021/12/09 21:23:02;;;;;;;67.90;42.97;;;;;;;;;;4975279;28;20452;-78
2021/12/09 21:25:28;;;;;;;75.33;45.63;;;;;;;;;;4971344;28;20496;-78
2021/12/09 21:27:55;;;;;;;77.70;46.63;;;;;;;;;;4977801;28;20462;-78
2021/12/09 21:30:21;;;;;;;79.87;47.90;;;;;;;;;;4993431;28;20444;-78
2021/12/09 21:32:47;;;;;;;79.63;46.73;;;;;;;;;;4977948;28;20426;-78
2021/12/09 21:35:23;;;;;;;87.43;50.87;;;;;;;;;;4976535;28;20420;-78
2021/12/09 21:37:53;;;;;;;81.50;47.63;;;;;;;;;;4979571;28;20479;-78
2021/12/09 21:40:22;;;;;;;78.73;47.97;;;;;;;;;;4978043;28;20496;-78
2021/12/09 21:42:54;;;;;;;79.63;48.73;;;;;;;;;;4977421;28;20492;-78
2021/12/09 21:45:21;;;;;;;91.40;49.93;;;;;;;;;;4978068;28;20428;-78
2021/12/09 21:47:47;;;;;;;89.67;50.70;;;;;;;;;;4976920;28;20426;-78
2021/12/09 21:50:14;;;;;;;75.50;45.47;;;;;;;;;;4975145;28;20518;-78
2021/12/09 21:52:40;;;;;;;85.87;49.00;;;;;;;;;;4977612;28;20504;-78
2021/12/09 21:55:06;;;;;;;88.63;51.40;;;;;;;;;;4978752;28;20440;-78
2021/12/09 21:57:33;;;;;;;92.27;52.27;;;;;;;;;;4974505;28;20448;-78
2021/12/09 22:00:00;;;;;;;93.63;51.90;;;;;;;;;;4975190;28;20583;-78
2021/12/09 22:02:26;;;;;;;81.40;48.97;;;;;;;;;;4975006;28;20424;-78
2021/12/09 22:04:52;;;;;;;85.13;50.43;;;;;;;;;;4989749;28;20433;-77
2021/12/09 22:07:18;;;;;;;75.50;46.13;;;;;;;;;;4980231;28;20416;-78
2021/12/09 22:09:47;;;;;;;73.43;44.93;;;;;;;;;;4978249;28;20412;-78
2021/12/09 22:12:13;;;;;;;89.97;50.43;;;;;;;;;;4974768;28;21375;-77
2021/12/09 22:14:40;;;;;;;84.00;48.87;;;;;;;;;;4975996;28;20427;-77
2021/12/09 22:17:09;;;;;;;87.40;49.27;;;;;;;;;;4991331;28;20576;-77
2021/12/09 22:19:36;;;;;;;83.50;46.53;;;;;;;;;;4975442;28;20543;-77
2021/12/09 22:22:02;;;;;;;77.43;46.33;;;;;;;;;;4973477;28;20413;-77
2021/12/09 22:24:28;;;;;;;79.53;46.97;;;;;;;;;;4979797;28;20539;-77
2021/12/09 22:26:54;;;;;;;93.23;50.37;;;;;;;;;;4978502;28;20420;-77
2021/12/09 22:29:21;;;;;;;74.33;44.57;;;;;;;;;;5011012;28;20436;-77
2021/12/09 22:31:47;;;;;;;86.50;48.70;;;;;;;;;;4975787;28;20459;-77
2021/12/09 22:34:14;;;;;;;91.00;50.43;;;;;;;;;;4976716;28;21596;-77
2021/12/09 22:36:41;;;;;;;86.47;51.43;;;;;;;;;;4976881;28;21099;-77
2021/12/09 22:39:07;;;;;;;88.43;51.33;;;;;;;;;;4976343;28;20453;-77
2021/12/09 22:41:33;;;;;;;76.53;44.97;;;;;;;;;;4992446;28;20421;-77
2021/12/09 22:44:00;;;;;;;87.80;49.40;;;;;;;;;;4976815;28;20478;-76
2021/12/09 22:46:26;;;;;;;74.03;44.43;;;;;;;;;;4980512;28;21158;-76
2021/12/09 22:48:53;;;;;;;92.43;51.83;;;;;;;;;;4982122;28;20465;-76
2021/12/09 22:51:24;;;;;;;92.77;51.87;;;;;;;;;;4981894;28;20457;-76
2021/12/09 22:53:52;;;;;;;93.13;51.27;;;;;;;;;;4980687;28;20416;-76
2021/12/09 22:56:19;;;;;;;85.07;49.90;;;;;;;;;;4982177;28;21084;-76
2021/12/09 22:58:46;;;;;;;99.77;56.47;;;;;;;;;;4995379;28;20515;-76
2021/12/09 23:01:13;;;;;;;99.43;55.07;;;;;;;;;;4999015;28;20423;-76
2021/12/09 23:03:40;;;;;;;97.77;53.30;;;;;;;;;;4978827;28;20423;-76
2021/12/09 23:06:07;;;;;;;99.60;55.50;;;;;;;;;;4979740;28;20435;-76
2021/12/09 23:08:35;;;;;;;91.80;51.80;;;;;;;;;;4981880;28;21246;-76
2021/12/09 23:11:05;;;;;;;100.23;55.53;;;;;;;;;;4980436;28;20455;-76
2021/12/09 23:13:34;;;;;;;93.10;51.80;;;;;;;;;;4995253;28;20499;-77
2021/12/09 23:16:02;;;;;;;93.87;50.87;;;;;;;;;;4993407;28;20420;-77
2021/12/09 23:18:30;;;;;;;83.60;48.43;;;;;;;;;;4994952;28;20455;-77
2021/12/09 23:20:56;;;;;;;80.93;47.53;;;;;;;;;;4982081;28;20535;-76
2021/12/09 23:23:23;;;;;;;78.80;46.90;;;;;;;;;;4962789;28;20424;-76